Time;durP1;ratioP1;P1;durP2;ratioP2;P2;SDS_P1;SDS_P2;PMS_P1;PMS_P2;Temp;Humidity;BMP_temperature;BMP_pressure;BME280_temperature;BME280_humidity;BME280_pressure;Samples;Min_cycle;Max_cycle;Signal;HPM_P1;HPM_P2
2022/09/25 00:00:50;;;;;;;37.75;33.25;;;17.00;1.00;;;;;;5085855;28;20035;-56
2022/09/25 00:03:17;;;;;;;36.03;32.30;;;16.90;1.00;;;;;;5091946;28;20024;-56
2022/09/25 00:05:47;;;;;;;36.05;32.13;;;16.90;1.00;;;;;;5093110;28;20024;-56
2022/09/25 00:08:14;;;;;;;36.15;32.25;;;16.90;1.00;;;;;;5092055;28;20407;-57
2022/09/25 00:10:42;;;;;;;36.58;32.78;;;16.80;1.00;;;;;;5092910;28;20070;-53
2022/09/25 00:13:08;;;;;;;38.88;34.78;;;16.80;1.00;;;;;;5090658;28;20024;-56
2022/09/25 00:15:33;;;;;;;38.55;34.45;;;16.90;1.00;;;;;;5091894;28;20023;-57
2022/09/25 00:17:59;;;;;;;36.13;32.08;;;16.90;1.00;;;;;;5091866;28;20577;-55
2022/09/25 00:20:25;;;;;;;34.35;30.73;;;16.70;1.00;;;;;;5092678;28;20540;-55
2022/09/25 00:22:53;;;;;;;35.47;31.63;;;16.80;1.00;;;;;;5091807;28;20032;-55
2022/09/25 00:25:19;;;;;;;34.53;30.83;;;16.90;1.00;;;;;;5090640;28;20040;-56
2022/09/25 00:27:45;;;;;;;32.78;29.48;;;16.90;1.00;;;;;;5082216;28;20039;-54
2022/09/25 00:30:12;;;;;;;30.20;27.10;;;17.00;1.00;;;;;;5091590;28;20020;-57
2022/09/25 00:32:38;;;;;;;32.15;28.80;;;16.90;1.00;;;;;;5079747;28;20024;-56
2022/09/25 00:35:05;;;;;;;32.33;29.05;;;16.90;1.00;;;;;;5091813;28;20111;-56
2022/09/25 00:37:36;;;;;;;31.27;27.90;;;16.90;1.00;;;;;;5091659;28;20367;-56
2022/09/25 00:40:03;;;;;;;32.05;28.67;;;16.70;1.00;;;;;;5089360;28;20137;-56
2022/09/25 00:42:29;;;;;;;32.35;29.05;;;16.90;1.00;;;;;;5091067;28;20024;-56
2022/09/25 00:45:03;;;;;;;30.25;27.17;;;16.90;1.00;;;;;;5089844;28;20032;-55
2022/09/25 00:48:00;;;;;;;34.97;29.10;;;16.80;1.00;;;;;;5092361;28;20061;-56
2022/09/25 00:50:28;;;;;;;32.42;29.08;;;16.90;1.00;;;;;;5077171;28;20483;-54
2022/09/25 00:53:02;;;;;;;33.08;29.58;;;16.90;1.00;;;;;;5091312;28;20046;-57
2022/09/25 00:55:28;;;;;;;;;;;16.90;1.00;;;;;;5090890;28;20099;-56
2022/09/25 00:57:56;;;;;;;32.42;29.05;;;16.70;1.00;;;;;;5091594;28;19956;-57
2022/09/25 01:00:22;;;;;;;32.00;28.73;;;16.60;1.00;;;;;;5088631;28;20089;-56
2022/09/25 01:02:52;;;;;;;32.17;28.75;;;16.70;1.00;;;;;;5091200;28;20032;-55
2022/09/25 01:05:22;;;;;;;30.92;27.73;;;16.70;1.00;;;;;;5077896;28;20025;-56
2022/09/25 01:07:49;;;;;;;31.15;28.05;;;16.60;1.00;;;;;;5089147;28;20028;-56
2022/09/25 01:10:17;;;;;;;30.73;27.63;;;16.80;1.00;;;;;;5082606;28;20032;-54
2022/09/25 01:12:47;;;;;;;31.65;28.35;;;16.80;1.00;;;;;;5084699;28;20016;-57
2022/09/25 01:15:15;;;;;;;30.65;27.38;;;16.90;1.00;;;;;;5083797;28;20515;-56
2022/09/25 01:18:03;;;;;;;28.65;25.80;;;16.90;1.00;;;;;;5090225;28;20078;-55
2022/09/25 01:20:50;;;;;;;28.30;25.42;;;16.90;1.00;;;;;;5085962;28;20145;-55
2022/09/25 01:23:56;;;;;;;28.48;25.48;;;16.90;1.00;;;;;;5084613;28;20023;-57
2022/09/25 01:26:59;;;;;;;29.13;26.17;;;16.80;1.00;;;;;;5060608;28;20055;-55
2022/09/25 01:30:02;;;;;;;24.50;22.13;;;16.80;1.00;;;;;;5085441;28;20069;-55
2022/09/25 01:32:50;;;;;;;27.00;22.95;;;16.70;1.00;;;;;;5048723;28;20063;-54
2022/09/25 01:35:33;;;;;;;25.92;23.23;;;16.60;1.00;;;;;;5074898;28;20137;-56
2022/09/25 01:38:12;;;;;;;25.08;22.58;;;16.70;1.00;;;;;;5090966;28;20016;-56
2022/09/25 01:41:00;;;;;;;25.65;22.27;;;16.60;1.00;;;;;;5090910;28;20393;-56
2022/09/25 01:43:33;;;;;;;25.73;23.20;;;16.70;1.00;;;;;;5073179;28;20382;-57
2022/09/25 01:46:14;;;;;;;24.85;22.35;;;16.60;1.00;;;;;;5083136;28;20035;-56
2022/09/25 01:48:43;;;;;;;26.15;23.55;;;16.40;1.00;;;;;;5076133;28;20028;-57
2022/09/25 01:51:28;;;;;;;27.42;24.63;;;16.60;1.00;;;;;;5083208;28;20032;-56
2022/09/25 01:53:55;;;;;;;;;;;16.50;1.00;;;;;;5089844;28;20052;-57
2022/09/25 01:56:32;;;;;;;25.77;22.90;;;16.50;1.00;;;;;;5091240;28;19904;-54
2022/09/25 01:59:29;;;;;;;25.15;22.60;;;16.70;1.00;;;;;;5071892;28;20044;-54
2022/09/25 02:01:58;;;;;;;26.85;24.05;;;16.70;1.00;;;;;;5077853;28;20041;-55
2022/09/25 02:04:31;;;;;;;26.92;24.10;;;16.60;1.00;;;;;;5087667;28;20024;-54
2022/09/25 02:07:03;;;;;;;25.25;22.55;;;16.70;1.00;;;;;;5091300;28;20059;-55
2022/09/25 02:09:42;;;;;;;26.63;23.83;;;16.80;1.00;;;;;;5084862;28;20039;-56
2022/09/25 02:12:16;;;;;;;25.58;23.08;;;16.80;1.00;;;;;;5090289;28;20028;-57
2022/09/25 02:15:41;;;;;;;23.30;21.02;;;16.70;1.00;;;;;;5082625;28;20142;-55
2022/09/25 02:21:36;;;;;;;24.33;21.90;;;16.70;1.00;;;;;;5045544;28;20419;-55
2022/09/25 02:24:05;;;;;;;24.42;22.00;;;16.70;1.00;;;;;;5087829;28;20414;-56
2022/09/25 02:26:33;;;;;;;25.27;22.65;;;16.40;1.00;;;;;;5075898;28;20064;-56
2022/09/25 02:29:00;;;;;;;28.48;25.58;;;16.60;1.00;;;;;;5092969;28;20032;-56
2022/09/25 02:31:31;;;;;;;29.90;25.40;;;16.50;1.00;;;;;;5094206;28;20380;-55
2022/09/25 02:33:57;;;;;;;26.25;23.65;;;16.60;1.00;;;;;;5076357;28;20456;-56
2022/09/25 02:36:23;;;;;;;26.95;24.20;;;16.50;1.00;;;;;;5087646;28;20430;-56
2022/09/25 02:38:50;;;;;;;25.83;23.13;;;16.60;1.00;;;;;;5093483;28;20027;-55
2022/09/25 02:41:24;;;;;;;24.33;21.83;;;16.70;1.00;;;;;;5093590;28;20115;-57
2022/09/25 02:44:10;;;;;;;24.75;22.30;;;16.60;1.00;;;;;;5092782;28;20389;-53
2022/09/25 02:46:52;;;;;;;26.13;23.40;;;16.70;1.00;;;;;;5094555;28;20032;-57
2022/09/25 02:49:21;;;;;;;26.08;23.30;;;16.80;1.00;;;;;;5081598;28;20034;-54
2022/09/25 02:52:05;;;;;;;26.60;23.90;;;16.60;1.00;;;;;;5094490;28;20030;-57
2022/09/25 02:54:45;;;;;;;23.70;21.30;;;16.70;1.00;;;;;;5085124;28;20390;-57
2022/09/25 02:58:00;;;;;;;24.15;21.75;;;16.70;1.00;;;;;;5088613;28;20033;-58
2022/09/25 03:00:26;;;;;;;21.23;19.25;;;16.70;1.00;;;;;;5051394;28;20068;-56
2022/09/25 03:02:58;;;;;;;22.02;19.77;;;16.70;1.00;;;;;;5029374;28;20041;-55
2022/09/25 03:05:25;;;;;;;20.85;18.90;;;16.70;1.00;;;;;;5064464;28;20115;-56
2022/09/25 03:10:37;;;;;;;22.15;19.90;;;16.70;1.00;;;;;;5079379;28;20036;-57
2022/09/25 03:13:25;;;;;;;21.02;18.92;;;16.70;1.00;;;;;;5086529;28;20126;-57
2022/09/25 03:15:57;;;;;;;22.20;19.90;;;16.60;1.00;;;;;;5083808;28;20055;-57
2022/09/25 03:18:24;;;;;;;21.75;19.55;;;16.70;1.00;;;;;;5094030;28;20055;-56
2022/09/25 03:20:51;;;;;;;22.73;20.35;;;16.70;1.00;;;;;;5090147;28;20051;-52
2022/09/25 03:23:17;;;;;;;21.85;19.65;;;16.70;1.00;;;;;;5087496;28;20039;-57
2022/09/25 03:25:42;;;;;;;23.25;20.85;;;16.80;1.00;;;;;;5076153;28;20037;-56
2022/09/25 03:28:09;;;;;;;23.05;20.75;;;16.80;1.00;;;;;;5090532;28;20409;-56
2022/09/25 03:30:37;;;;;;;22.88;20.58;;;16.80;1.00;;;;;;5085009;28;20032;-56
2022/09/25 03:36:27;;;;;;;22.13;19.85;;;16.70;1.00;;;;;;5081838;28;20093;-56
2022/09/25 03:38:57;;;;;;;23.58;21.17;;;16.70;1.00;;;;;;5079650;28;20051;-54
2022/09/25 03:41:26;;;;;;;23.15;20.73;;;16.70;1.00;;;;;;5092963;28;20112;-55
2022/09/25 03:43:52;;;;;;;21.52;19.42;;;16.80;1.00;;;;;;5093607;28;20465;-53
2022/09/25 03:46:21;;;;;;;21.75;19.55;;;16.80;1.00;;;;;;5090431;28;20047;-55
2022/09/25 03:48:47;;;;;;;20.77;18.70;;;16.70;1.00;;;;;;5092107;28;20020;-55
2022/09/25 03:51:13;;;;;;;21.48;19.23;;;16.70;1.00;;;;;;5087043;28;20032;-55
2022/09/25 03:53:39;;;;;;;20.70;18.67;;;16.70;1.00;;;;;;5090466;28;20031;-55
2022/09/25 03:56:10;;;;;;;22.30;20.13;;;16.80;1.00;;;;;;5084246;28;20481;-54
2022/09/25 03:58:36;;;;;;;21.25;19.15;;;16.90;1.00;;;;;;5092994;28;20027;-56
2022/09/25 04:01:03;;;;;;;20.35;18.25;;;16.70;1.00;;;;;;5077826;28;20024;-56
2022/09/25 04:03:29;;;;;;;20.23;18.33;;;16.70;1.00;;;;;;5093336;28;20020;-53
2022/09/25 04:05:57;;;;;;;21.40;19.40;;;16.70;1.00;;;;;;5092079;28;20158;-56
2022/09/25 04:08:25;;;;;;;19.90;17.92;;;16.70;1.00;;;;;;5083458;28;20032;-58
2022/09/25 04:10:55;;;;;;;17.75;15.95;;;16.60;1.00;;;;;;5084403;28;20028;-56
2022/09/25 04:13:21;;;;;;;18.95;17.25;;;16.60;1.00;;;;;;5093693;28;20378;-57
2022/09/25 04:15:47;;;;;;;18.70;16.90;;;16.60;1.00;;;;;;5091766;28;20103;-56
2022/09/25 04:18:13;;;;;;;18.80;17.00;;;16.60;1.00;;;;;;5081131;28;20466;-57
2022/09/25 04:20:39;;;;;;;17.60;15.88;;;16.50;1.00;;;;;;5091460;28;20032;-55
2022/09/25 04:23:04;;;;;;;18.88;16.98;;;16.50;1.00;;;;;;5079113;28;20043;-53
2022/09/25 04:25:30;;;;;;;17.52;15.85;;;16.50;1.00;;;;;;5092808;28;20406;-56
2022/09/25 04:27:57;;;;;;;18.42;16.52;;;16.50;1.00;;;;;;5078362;28;20035;-57
2022/09/25 04:30:23;;;;;;;16.95;15.15;;;16.70;1.00;;;;;;5092678;28;20111;-57
2022/09/25 04:35:53;;;;;;;18.05;16.35;;;16.60;1.00;;;;;;5062370;28;20029;-56
2022/09/25 04:38:18;;;;;;;17.85;15.98;;;16.70;1.00;;;;;;5069172;28;20176;-55
2022/09/25 04:40:44;;;;;;;18.30;16.38;;;16.40;1.00;;;;;;5080322;28;20082;-57
2022/09/25 04:43:10;;;;;;;18.92;17.10;;;16.40;1.00;;;;;;5091506;28;20452;-55
2022/09/25 04:45:36;;;;;;;17.92;16.23;;;16.60;1.00;;;;;;5092567;28;20032;-54
2022/09/25 04:48:03;;;;;;;17.40;15.80;;;16.60;1.00;;;;;;5089464;28;20154;-56
2022/09/25 04:50:28;;;;;;;16.52;15.00;;;16.40;1.00;;;;;;5091120;28;20016;-57
2022/09/25 04:52:56;;;;;;;17.10;15.50;;;16.50;1.00;;;;;;5088586;28;20569;-56
2022/09/25 04:55:23;;;;;;;18.70;16.92;;;16.60;1.00;;;;;;5078312;28;20181;-56
2022/09/25 04:57:57;;;;;;;17.55;15.85;;;16.60;1.00;;;;;;5091628;28;20024;-57
2022/09/25 05:00:25;;;;;;;17.15;15.63;;;16.60;1.00;;;;;;5077968;28;20021;-55
2022/09/25 05:02:51;;;;;;;16.85;15.23;;;16.70;1.00;;;;;;5089735;28;20031;-54
2022/09/25 05:05:18;;;;;;;17.30;15.63;;;16.60;1.00;;;;;;5092348;28;20020;-57
2022/09/25 05:07:52;;;;;;;16.35;14.63;;;16.70;1.00;;;;;;5089986;28;20036;-58
2022/09/25 05:10:19;;;;;;;19.67;17.67;;;16.80;1.00;;;;;;5092154;28;20377;-57
2022/09/25 05:12:44;;;;;;;17.92;16.20;;;16.70;1.00;;;;;;5089668;28;20024;-55
2022/09/25 05:15:10;;;;;;;16.88;15.27;;;16.70;1.00;;;;;;5092351;28;20039;-56
2022/09/25 05:17:36;;;;;;;17.73;16.05;;;16.70;1.00;;;;;;5091422;28;20028;-55
2022/09/25 05:20:02;;;;;;;17.55;15.85;;;16.80;1.00;;;;;;5084240;28;20030;-57
2022/09/25 05:22:28;;;;;;;17.70;16.00;;;16.70;1.00;;;;;;5084434;28;20481;-57
2022/09/25 05:24:53;;;;;;;17.95;16.15;;;16.60;1.00;;;;;;5090455;28;20043;-54
2022/09/25 05:27:20;;;;;;;16.02;14.52;;;16.70;1.00;;;;;;5089738;28;20040;-56
2022/09/25 05:29:46;;;;;;;17.13;15.50;;;16.60;1.00;;;;;;5091289;28;20053;-57
2022/09/25 05:32:11;;;;;;;16.95;15.35;;;16.70;1.00;;;;;;5081022;28;20036;-56
2022/09/25 05:34:37;;;;;;;17.70;16.05;;;16.70;1.00;;;;;;5087867;28;20016;-56
2022/09/25 05:37:02;;;;;;;17.17;15.55;;;16.60;1.00;;;;;;5073193;28;20021;-56
2022/09/25 05:39:28;;;;;;;17.75;15.70;;;16.50;1.00;;;;;;5079910;28;20036;-57
2022/09/25 05:41:54;;;;;;;17.42;15.63;;;16.20;1.00;;;;;;5084148;28;20028;-59
2022/09/25 05:44:20;;;;;;;16.73;15.10;;;15.90;1.00;;;;;;5089032;28;20047;-59
2022/09/25 05:46:45;;;;;;;16.88;15.25;;;15.50;1.00;;;;;;5086134;28;20066;-59
2022/09/25 05:49:11;;;;;;;19.08;17.10;;;15.40;1.00;;;;;;5093404;28;20522;-58
2022/09/25 05:51:37;;;;;;;19.13;17.27;;;15.40;1.00;;;;;;5095157;28;20035;-59
2022/09/25 05:54:03;;;;;;;19.15;17.27;;;15.70;1.00;;;;;;5095709;28;20016;-59
2022/09/25 05:56:29;;;;;;;18.95;17.15;;;15.70;1.00;;;;;;5093287;28;20032;-59
2022/09/25 05:58:57;;;;;;;19.10;17.25;;;16.00;1.00;;;;;;5090173;28;20028;-56
2022/09/25 06:01:23;;;;;;;17.52;15.75;;;16.20;1.00;;;;;;5082701;28;20051;-59
2022/09/25 06:03:48;;;;;;;17.10;15.55;;;16.40;1.00;;;;;;5088174;28;20078;-58
2022/09/25 06:06:14;;;;;;;16.35;14.65;;;16.50;1.00;;;;;;5088832;28;20041;-58
2022/09/25 06:08:40;;;;;;;16.23;14.63;;;16.60;1.00;;;;;;5094850;28;20429;-59
2022/09/25 06:11:06;;;;;;;16.88;15.35;;;16.70;1.00;;;;;;5089660;28;20039;-59
2022/09/25 06:13:33;;;;;;;16.20;14.48;;;16.70;1.00;;;;;;5077985;28;20017;-58
2022/09/25 06:15:59;;;;;;;16.92;15.32;;;16.70;1.00;;;;;;5073177;28;20029;-58
2022/09/25 06:18:25;;;;;;;17.02;15.43;;;16.70;1.00;;;;;;5092895;28;20020;-57
2022/09/25 06:21:01;;;;;;;16.40;14.82;;;16.80;1.00;;;;;;5094705;28;20032;-57
2022/09/25 06:23:28;;;;;;;17.38;15.77;;;16.90;1.00;;;;;;5081132;28;20113;-59
2022/09/25 06:25:53;;;;;;;15.75;14.15;;;16.90;1.00;;;;;;5094880;28;20111;-59
2022/09/25 06:28:19;;;;;;;15.82;14.20;;;16.60;1.00;;;;;;5079418;28;20613;-58
2022/09/25 06:30:46;;;;;;;14.88;13.13;;;16.80;1.00;;;;;;5094730;28;20028;-59
2022/09/25 06:33:13;;;;;;;15.38;13.88;;;16.80;1.00;;;;;;5093192;28;20036;-57
2022/09/25 06:35:53;;;;;;;15.05;13.65;;;16.80;1.00;;;;;;5095030;28;20028;-59
2022/09/25 06:38:19;;;;;;;16.35;14.82;;;16.90;1.00;;;;;;5091967;28;20110;-58
2022/09/25 06:40:45;;;;;;;16.35;14.55;;;17.10;1.00;;;;;;5094586;28;20174;-58
2022/09/25 06:43:15;;;;;;;17.10;15.50;;;17.10;1.00;;;;;;5092303;28;20032;-59
2022/09/25 06:45:41;;;;;;;16.90;15.20;;;17.00;1.00;;;;;;5094089;28;20016;-60
2022/09/25 06:48:16;;;;;;;16.23;14.82;;;17.10;1.00;;;;;;5091381;28;20028;-59
2022/09/25 06:50:52;;;;;;;16.95;14.98;;;17.10;1.00;;;;;;5083776;28;20081;-59
2022/09/25 06:53:19;;;;;;;16.33;14.73;;;17.20;1.00;;;;;;5080560;28;20082;-59
2022/09/25 06:55:46;;;;;;;16.40;14.90;;;17.10;1.00;;;;;;5079585;28;20029;-60
2022/09/25 06:58:14;;;;;;;14.93;13.57;;;17.30;1.00;;;;;;5079500;28;20462;-60
2022/09/25 07:00:40;;;;;;;16.33;14.68;;;17.30;1.00;;;;;;5093915;28;20020;-59
2022/09/25 07:05:51;;;;;;;16.35;14.85;;;17.40;1.00;;;;;;5086107;28;20121;-55
2022/09/25 07:08:19;;;;;;;16.58;14.90;;;17.40;1.00;;;;;;5088210;28;20501;-60
2022/09/25 07:10:49;;;;;;;16.55;15.07;;;17.40;1.00;;;;;;5079730;28;20103;-59
2022/09/25 07:13:16;;;;;;;16.10;14.60;;;17.50;1.00;;;;;;5087629;28;20052;-58
2022/09/25 07:15:49;;;;;;;14.68;13.27;;;17.50;1.00;;;;;;5094293;28;20020;-60
2022/09/25 07:18:14;;;;;;;14.93;13.50;;;17.40;1.00;;;;;;5092432;28;20103;-59
2022/09/25 07:20:40;;;;;;;15.25;13.27;;;17.40;1.00;;;;;;5093781;28;20059;-58
2022/09/25 07:23:05;;;;;;;14.65;13.15;;;17.50;1.00;;;;;;5093146;28;20040;-57
2022/09/25 07:25:31;;;;;;;15.77;14.30;;;17.60;1.00;;;;;;5093985;28;20078;-59
2022/09/25 07:27:57;;;;;;;15.40;13.90;;;17.40;1.00;;;;;;5091719;28;20100;-59
2022/09/25 07:30:26;;;;;;;14.93;13.52;;;17.50;1.00;;;;;;5092750;28;20012;-59
2022/09/25 07:32:52;;;;;;;16.48;14.90;;;17.60;1.00;;;;;;5092634;28;20500;-59
2022/09/25 07:35:18;;;;;;;17.05;15.27;;;17.60;1.00;;;;;;5093879;28;20013;-59
2022/09/25 07:37:43;;;;;;;16.85;15.25;;;17.50;1.00;;;;;;5080305;28;20029;-59
2022/09/25 07:40:13;;;;;;;16.23;14.52;;;17.50;1.00;;;;;;5093301;28;20053;-59
2022/09/25 07:42:40;;;;;;;16.75;15.15;;;17.60;1.00;;;;;;5081423;28;20115;-59
2022/09/25 07:45:06;;;;;;;15.18;13.70;;;17.70;1.00;;;;;;5084458;28;20096;-60
2022/09/25 07:47:32;;;;;;;16.35;14.75;;;17.70;1.00;;;;;;5085975;28;20062;-60
2022/09/25 07:49:58;;;;;;;16.70;14.93;;;17.80;1.00;;;;;;5089908;28;20020;-59
2022/09/25 07:59:08;;;;;;;17.33;15.52;;;17.80;1.00;;;;;;5078141;28;20098;-60
2022/09/25 08:01:33;;;;;;;17.85;16.13;;;17.90;1.00;;;;;;5089123;28;20102;-60
2022/09/25 08:03:59;;;;;;;17.92;16.13;;;17.90;1.00;;;;;;5092014;28;20031;-59
2022/09/25 08:06:24;;;;;;;18.45;16.73;;;17.90;1.00;;;;;;5073018;28;20109;-59
2022/09/25 08:08:50;;;;;;;19.60;17.67;;;17.90;1.00;;;;;;5082013;28;20048;-58
2022/09/25 08:11:17;;;;;;;18.33;16.48;;;18.10;1.00;;;;;;5092769;28;20024;-59
2022/09/25 08:13:43;;;;;;;17.20;15.43;;;18.10;1.00;;;;;;5081604;28;20494;-59
2022/09/25 08:16:12;;;;;;;17.88;16.17;;;18.20;1.00;;;;;;5089066;28;20087;-58
2022/09/25 08:18:40;;;;;;;18.15;16.30;;;18.10;1.00;;;;;;5083623;28;20120;-56
2022/09/25 08:21:06;;;;;;;17.33;15.55;;;18.20;1.00;;;;;;5089980;28;20041;-58
2022/09/25 08:23:32;;;;;;;15.05;13.45;;;18.10;1.00;;;;;;5088167;28;20398;-58
2022/09/25 08:25:59;;;;;;;16.40;14.80;;;18.20;1.00;;;;;;5087684;28;20036;-61
2022/09/25 08:28:24;;;;;;;14.32;12.98;;;18.10;1.00;;;;;;5092219;28;20027;-55
2022/09/25 08:30:50;;;;;;;16.15;14.55;;;18.00;1.00;;;;;;5087213;28;20032;-51
2022/09/25 08:33:16;;;;;;;16.08;14.48;;;17.90;1.00;;;;;;5083942;28;20047;-54
2022/09/25 08:35:42;;;;;;;15.75;14.38;;;18.10;1.00;;;;;;5081647;28;20063;-53
2022/09/25 08:38:11;;;;;;;16.40;14.80;;;17.90;1.00;;;;;;5091756;28;20020;-54
2022/09/25 08:40:43;;;;;;;15.77;14.25;;;17.90;1.00;;;;;;5091922;28;20055;-52
2022/09/25 08:43:17;;;;;;;17.67;15.73;;;17.90;1.00;;;;;;5091454;28;20028;-54
2022/09/25 08:49:05;;;;;;;15.90;14.18;;;18.20;1.00;;;;;;5092125;28;20492;-53
2022/09/25 08:51:40;;;;;;;15.75;14.05;;;18.20;1.00;;;;;;5090812;28;20028;-53
2022/09/25 08:54:06;;;;;;;16.08;14.38;;;18.10;1.00;;;;;;5078310;28;20085;-51
2022/09/25 08:56:34;;;;;;;15.25;13.75;;;18.00;1.00;;;;;;5091622;28;20064;-50
2022/09/25 08:59:27;;;;;;;14.88;13.40;;;18.00;1.00;;;;;;5081092;28;20033;-51
2022/09/25 09:01:58;;;;;;;14.40;13.00;;;18.20;1.00;;;;;;5090477;28;20028;-54
2022/09/25 09:04:31;;;;;;;16.02;14.52;;;18.30;1.00;;;;;;5090190;28;20028;-54
2022/09/25 09:07:13;;;;;;;14.93;13.48;;;18.20;1.00;;;;;;5090542;28;20036;-53
2022/09/25 09:10:20;;;;;;;15.40;13.77;;;18.30;1.00;;;;;;5090848;28;20039;-56
2022/09/25 09:12:57;;;;;;;13.73;12.27;;;18.20;1.00;;;;;;5077764;28;20043;-51
2022/09/25 09:15:47;;;;;;;15.80;14.30;;;18.00;1.00;;;;;;5091145;28;20067;-51
2022/09/25 09:18:25;;;;;;;15.45;13.88;;;18.10;1.00;;;;;;5092077;28;20016;-56
2022/09/25 09:20:57;;;;;;;15.80;14.27;;;18.20;1.00;;;;;;5079959;28;20408;-52
2022/09/25 09:23:30;;;;;;;14.52;13.13;;;18.20;1.00;;;;;;5090889;28;20063;-51
2022/09/25 09:26:13;;;;;;;15.32;13.75;;;18.20;1.00;;;;;;5084731;28;20054;-55
2022/09/25 09:28:57;;;;;;;15.40;13.77;;;18.30;1.00;;;;;;5091966;28;20466;-56
2022/09/25 09:31:51;;;;;;;15.45;13.85;;;18.30;1.00;;;;;;5091003;28;20024;-56
2022/09/25 09:34:22;;;;;;;16.08;14.55;;;18.40;1.00;;;;;;5090130;28;20073;-52
2022/09/25 09:37:05;;;;;;;18.00;15.27;;;18.30;1.00;;;;;;5080091;28;20028;-53
2022/09/25 09:39:54;;;;;;;16.83;15.13;;;18.20;1.00;;;;;;5090127;28;20028;-54
2022/09/25 09:42:54;;;;;;;17.77;16.08;;;18.30;1.00;;;;;;5090943;28;20056;-61
2022/09/25 09:45:27;;;;;;;15.48;14.07;;;18.40;1.00;;;;;;5080419;28;20043;-61
2022/09/25 09:48:07;;;;;;;17.27;15.25;;;18.30;1.00;;;;;;5089035;28;20055;-62
2022/09/25 09:50:39;;;;;;;17.25;15.65;;;18.40;1.00;;;;;;5072439;28;20029;-70
2022/09/25 09:53:22;;;;;;;17.52;15.65;;;18.40;1.00;;;;;;5074841;28;20035;-55
2022/09/25 09:55:52;;;;;;;17.23;15.65;;;18.60;1.00;;;;;;5079855;28;20036;-54
2022/09/25 09:58:23;;;;;;;17.60;15.88;;;18.90;1.00;;;;;;5084382;28;20355;-61
2022/09/25 10:00:50;;;;;;;17.45;15.82;;;19.00;1.00;;;;;;5071021;28;20036;-51
2022/09/25 10:03:29;;;;;;;17.27;15.65;;;19.00;1.00;;;;;;5088625;28;20474;-55
2022/09/25 10:06:04;;;;;;;16.42;14.93;;;19.10;1.00;;;;;;5090586;28;20026;-55
2022/09/25 10:08:30;;;;;;;17.92;16.23;;;19.40;1.00;;;;;;5089561;28;20016;-55
2022/09/25 10:10:58;;;;;;;15.68;14.13;;;19.60;1.00;;;;;;5089037;28;20035;-53
2022/09/25 10:13:33;;;;;;;15.65;14.15;;;19.70;1.00;;;;;;5089408;28;20385;-54
2022/09/25 10:15:59;;;;;;;15.98;14.48;;;19.80;1.00;;;;;;5090605;28;20030;-54
2022/09/25 10:18:30;;;;;;;15.98;14.50;;;19.70;1.00;;;;;;5090976;28;20016;-49
2022/09/25 10:21:02;;;;;;;15.68;14.27;;;19.80;1.00;;;;;;5075274;28;20024;-52
2022/09/25 10:23:54;;;;;;;17.52;15.73;;;19.80;1.00;;;;;;5080522;28;20062;-49
2022/09/25 10:26:27;;;;;;;15.45;13.95;;;19.70;1.00;;;;;;5077343;28;20040;-58
2022/09/25 10:28:57;;;;;;;15.05;13.65;;;19.80;1.00;;;;;;5082428;28;20230;-59
2022/09/25 10:31:26;;;;;;;15.35;14.00;;;20.00;1.00;;;;;;5091290;28;20016;-59
2022/09/25 10:34:08;;;;;;;14.52;13.18;;;19.70;1.00;;;;;;5076621;28;20024;-59
2022/09/25 10:36:38;;;;;;;15.70;14.20;;;19.70;1.00;;;;;;5078851;28;20040;-60
2022/09/25 10:39:23;;;;;;;13.85;12.35;;;19.70;1.00;;;;;;5091819;28;20024;-51
2022/09/25 10:41:49;;;;;;;;;;;19.70;1.00;;;;;;5094818;28;20138;-48
2022/09/25 10:44:28;;;;;;;14.02;12.75;;;19.70;1.00;;;;;;5088518;28;19924;-49
2022/09/25 10:52:48;;;;;;;14.77;13.10;;;19.90;1.00;;;;;;5080710;28;20569;-49
2022/09/25 10:55:26;;;;;;;14.63;13.32;;;19.90;1.00;;;;;;5083986;28;20035;-51
2022/09/25 10:58:09;;;;;;;14.73;13.15;;;20.00;1.00;;;;;;5087143;28;20474;-50
2022/09/25 11:00:52;;;;;;;14.80;13.50;;;20.10;1.00;;;;;;5077382;28;20115;-49
2022/09/25 11:03:27;;;;;;;14.70;13.30;;;20.00;1.00;;;;;;5072828;28;20102;-52
2022/09/25 11:05:58;;;;;;;14.82;13.40;;;20.00;1.00;;;;;;5090967;28;20031;-53
2022/09/25 11:08:29;;;;;;;15.25;13.75;;;20.00;1.00;;;;;;5093077;28;20086;-51
2022/09/25 11:10:57;;;;;;;17.23;15.52;;;19.90;1.00;;;;;;5074559;28;20029;-53
2022/09/25 11:13:35;;;;;;;18.92;16.85;;;19.80;1.00;;;;;;5079034;28;20030;-48
2022/09/25 11:16:04;;;;;;;19.88;18.05;;;19.80;1.00;;;;;;5073472;28;20032;-49
2022/09/25 11:18:43;;;;;;;18.02;16.38;;;19.70;1.00;;;;;;5072777;28;20494;-47
2022/09/25 11:21:30;;;;;;;20.23;18.33;;;19.80;1.00;;;;;;5073234;28;20169;-47
2022/09/25 11:24:05;;;;;;;21.75;19.58;;;19.60;1.00;;;;;;5072079;28;20051;-48
2022/09/25 11:26:42;;;;;;;21.80;19.77;;;19.60;1.00;;;;;;5092899;28;20032;-51
2022/09/25 11:29:44;;;;;;;22.30;20.08;;;19.50;1.00;;;;;;5075330;28;20433;-48
2022/09/25 11:32:19;;;;;;;27.40;23.50;;;19.50;1.00;;;;;;5092999;28;20108;-49
2022/09/25 11:35:02;;;;;;;21.83;19.73;;;19.50;1.00;;;;;;5091953;28;20023;-50
2022/09/25 11:38:06;;;;;;;22.00;19.90;;;19.60;1.00;;;;;;5092481;28;20381;-48
2022/09/25 11:43:45;;;;;;;24.48;21.98;;;19.70;1.00;;;;;;5072626;28;20343;-50
2022/09/25 11:46:22;;;;;;;23.83;21.52;;;19.60;1.00;;;;;;5072837;28;20025;-51
2022/09/25 11:49:18;;;;;;;23.88;21.58;;;19.70;1.00;;;;;;5092610;28;20032;-49
2022/09/25 11:52:08;;;;;;;22.08;19.88;;;19.60;1.00;;;;;;5064557;28;20070;-48
2022/09/25 11:55:00;;;;;;;21.98;19.90;;;19.60;1.00;;;;;;5076974;28;20044;-48
2022/09/25 11:57:54;;;;;;;23.25;21.02;;;19.60;1.00;;;;;;5088798;28;20138;-51
2022/09/25 12:00:54;;;;;;;21.35;19.10;;;19.70;1.00;;;;;;5091533;28;20474;-48
2022/09/25 12:03:36;;;;;;;21.15;19.00;;;19.70;1.00;;;;;;5092152;28;20493;-48
2022/09/25 12:06:15;;;;;;;20.45;18.75;;;19.60;1.00;;;;;;5071459;28;20044;-47
2022/09/25 12:08:53;;;;;;;21.80;19.63;;;19.60;1.00;;;;;;5071435;28;20020;-52
2022/09/25 12:11:47;;;;;;;19.73;18.02;;;19.50;1.00;;;;;;5091152;28;20036;-48
2022/09/25 12:14:18;;;;;;;17.77;16.08;;;19.60;1.00;;;;;;5090915;28;20040;-50
2022/09/25 12:17:16;;;;;;;17.48;15.88;;;19.60;1.00;;;;;;5092086;28;20028;-47
2022/09/25 12:19:42;;;;;;;13.60;12.40;;;19.40;1.00;;;;;;5085781;28;20046;-51
2022/09/25 12:22:29;;;;;;;15.48;13.98;;;19.50;1.00;;;;;;5079707;28;20221;-47
2022/09/25 12:25:21;;;;;;;15.50;13.98;;;19.60;1.00;;;;;;5078062;28;20051;-53
2022/09/25 12:28:15;;;;;;;14.05;12.57;;;19.60;1.00;;;;;;5090116;28;20035;-52
2022/09/25 12:31:05;;;;;;;13.40;12.10;;;19.60;1.00;;;;;;5090131;28;20036;-49
2022/09/25 12:33:55;;;;;;;13.88;12.57;;;19.70;1.00;;;;;;5090497;28;20020;-49
2022/09/25 12:36:36;;;;;;;13.48;12.27;;;19.90;1.00;;;;;;5071805;28;20497;-51
2022/09/25 12:39:04;;;;;;;12.52;11.40;;;20.00;1.00;;;;;;5071152;28;20051;-52
2022/09/25 12:41:44;;;;;;;12.77;11.43;;;20.00;1.00;;;;;;5071401;28;20024;-48
2022/09/25 12:44:30;;;;;;;12.15;11.05;;;20.10;1.00;;;;;;5070881;28;20016;-47
2022/09/25 12:47:08;;;;;;;13.52;12.20;;;20.10;1.00;;;;;;5070790;28;20398;-52
2022/09/25 12:49:43;;;;;;;14.73;13.18;;;20.00;1.00;;;;;;5073653;28;20528;-47
2022/09/25 12:52:20;;;;;;;15.25;13.57;;;20.00;1.00;;;;;;5090782;28;20142;-50
2022/09/25 12:55:18;;;;;;;13.27;12.05;;;19.80;1.00;;;;;;5089710;28;20059;-52
2022/09/25 12:57:54;;;;;;;13.00;11.70;;;19.90;1.00;;;;;;5069521;28;20505;-52
2022/09/25 13:00:24;;;;;;;13.30;12.00;;;19.70;1.00;;;;;;5078729;28;20115;-50
2022/09/25 13:03:14;;;;;;;13.45;12.18;;;19.70;1.00;;;;;;5090932;28;20016;-53
2022/09/25 13:05:46;;;;;;;12.98;11.68;;;19.60;1.00;;;;;;5079376;28;20028;-53
2022/09/25 13:08:49;;;;;;;13.05;11.88;;;19.70;1.00;;;;;;5070400;28;20083;-54
2022/09/25 13:11:30;;;;;;;14.55;12.90;;;19.80;1.00;;;;;;5085776;28;20461;-53
2022/09/25 13:13:57;;;;;;;14.35;12.95;;;19.70;1.00;;;;;;5090846;28;20028;-51
2022/09/25 13:16:23;;;;;;;13.65;12.35;;;19.80;1.00;;;;;;5077406;28;20029;-50
2022/09/25 13:19:11;;;;;;;13.77;12.27;;;20.00;1.00;;;;;;5070613;28;20038;-52
2022/09/25 13:21:41;;;;;;;14.05;12.75;;;19.90;1.00;;;;;;5073081;28;20047;-53
2022/09/25 13:24:13;;;;;;;14.88;13.57;;;20.00;1.00;;;;;;5090577;28;20073;-51
2022/09/25 13:26:51;;;;;;;15.35;13.95;;;19.90;1.00;;;;;;5089244;28;20105;-51
2022/09/25 13:29:26;;;;;;;14.95;13.68;;;20.10;1.00;;;;;;5090547;28;20055;-50
2022/09/25 13:32:02;;;;;;;14.88;13.52;;;20.00;1.00;;;;;;5090316;28;20024;-50
2022/09/25 13:34:36;;;;;;;13.45;12.27;;;20.10;1.00;;;;;;5090389;28;20016;-52
2022/09/25 13:37:04;;;;;;;15.45;13.95;;;20.10;1.00;;;;;;5079647;28;20032;-51
2022/09/25 13:42:33;;;;;;;13.25;12.05;;;20.00;1.00;;;;;;5070552;28;20067;-50
2022/09/25 13:45:07;;;;;;;13.40;12.18;;;20.00;1.00;;;;;;5070082;28;20486;-49